K6NC Weather Reports


Display with metric or nautical units.
time (UTC)temp
F
wind
direction
speed
MPH
gust
MPH
rain 1hr
in
rain 24hr
in
rain mn
in
humidity
%
barometer
mb
20220816075359 68 126 1.0 2.0 0.00 0.00 0.00 67 1008.1
20220816075316 68 126 1.0 2.0 0.00 0.00 0.00 67 1008.1
20220816074901 68 126 0.0 1.0 0.00 0.00 0.00 68 1008.2
20220816074359 68 126 0.0 0.0 0.00 0.00 0.00 68 1008.3
20220816073911 69 126 0.0 0.0 0.00 0.00 0.00 67 1008.3
20220816073828 69 126 0.0 0.0 0.00 0.00 0.00 67 1008.3
20220816073408 69 126 0.0 1.0 0.00 0.00 0.00 63 1008.4
20220816072920 70 126 0.0 1.0 0.00 0.00 0.00 63 1008.4
20220816072345 71 126 1.0 2.0 0.00 0.00 0.00 60 1008.4
20220816071849 73 171 1.0 2.0 0.00 0.00 0.00 50 1008.4
20220816071407 73 171 1.0 2.0 0.00 0.00 0.00 50 1008.4
20220816070822 72 169 1.0 3.0 0.00 0.00 0.00 51 1008.4
20220816070342 72 215 2.0 3.0 0.00 0.00 0.00 52 1008.3
20220816065918 73 178 1.0 3.0 0.00 0.00 0.00 50 1008.4
20220816065836 73 178 1.0 3.0 0.00 0.00 0.00 50 1008.4
20220816065410 72 113 1.0 3.0 0.00 0.00 0.00 52 1008.4
20220816064850 71 189 1.0 3.0 0.00 0.00 0.00 52 1008.3
20220816064359 72 98 1.0 1.0 0.00 0.00 0.00 51 1008.4
20220816063906 72 98 0.0 2.0 0.00 0.00 0.00 51 1008.3
20220816063319 73 98 1.0 3.0 0.00 0.00 0.00 51 1008.3
20220816062915 73 101 2.0 4.0 0.00 0.00 0.00 51 1008.3
20220816062832 73 101 2.0 4.0 0.00 0.00 0.00 51 1008.3
20220816062406 72 98 2.0 4.0 0.00 0.00 0.00 51 1008.3
20220816062323 72 98 2.0 4.0 0.00 0.00 0.00 51 1008.3
20220816061849 73 79 2.0 3.0 0.00 0.00 0.00 51 1008.3
20220816061337 73 101 0.0 5.0 0.00 0.00 0.00 52 1008.4
20220816060900 73 99 3.0 7.0 0.00 0.00 0.00 53 1008.4
20220816060410 72 77 5.0 7.0 0.00 0.00 0.00 53 1008.4
20220816060328 72 77 5.0 7.0 0.00 0.00 0.00 53 1008.4
20220816055855 73 70 2.0 5.0 0.00 0.00 0.00 53 1008.3
20220816055813 73 70 2.0 5.0 0.00 0.00 0.00 53 1008.3
20220816055408 73 74 4.0 6.0 0.00 0.00 0.00 53 1008.2
20220816054833 72 88 1.0 5.0 0.00 0.00 0.00 55 1008.1
20220816054335 71 88 2.0 5.0 0.00 0.00 0.00 56 1008.1
20220816053844 72 74 5.0 5.0 0.00 0.00 0.00 54 1008.1
20220816053410 73 65 3.0 4.0 0.00 0.00 0.00 57 1008.0
20220816053328 73 65 3.0 4.0 0.00 0.00 0.00 57 1008.0
20220816052854 75 42 2.0 4.0 0.00 0.00 0.00 60 1008.0
20220816052405 77 217 3.0 4.0 0.00 0.00 0.00 45 1008.1
20220816051841 78 214 2.0 3.0 0.00 0.00 0.00 45 1007.9
20220816051409 78 224 2.0 4.0 0.00 0.00 0.00 45 1008.0
20220816051326 78 224 2.0 4.0 0.00 0.00 0.00 45 1008.0
20220816050816 78 224 2.0 4.0 0.00 0.00 0.00 44 1008.0
20220816050325 78 219 2.0 3.0 0.00 0.00 0.00 45 1008.0
20220816045843 79 219 2.0 4.0 0.00 0.00 0.00 44 1008.0
20220816045410 79 224 3.0 4.0 0.00 0.00 0.00 44 1007.9
20220816044859 80 207 3.0 6.0 0.00 0.00 0.00 43 1007.9
20220816044322 80 226 3.0 6.0 0.00 0.00 0.00 43 1007.8
20220816043903 80 234 4.0 6.0 0.00 0.00 0.00 43 1007.8
20220816043821 80 234 4.0 6.0 0.00 0.00 0.00 43 1007.8
20220816043334 80 238 4.0 6.0 0.00 0.00 0.00 42 1007.8
20220816042822 81 264 4.0 7.0 0.00 0.00 0.00 42 1007.9
20220816042358 81 235 5.0 7.0 0.00 0.00 0.00 41 1007.7
20220816041826 81 246 5.0 7.0 0.00 0.00 0.00 41 1007.7
20220816041319 82 227 4.0 7.0 0.00 0.00 0.00 40 1007.5
20220816040829 82 234 5.0 7.0 0.00 0.00 0.00 39 1007.6
20220816040338 83 236 5.0 7.0 0.00 0.00 0.00 38 1007.6
20220816035843 83 234 5.0 7.0 0.00 0.00 0.00 38 1007.6
20220816035400 83 232 3.0 7.0 0.00 0.00 0.00 37 1007.5
20220816035317 83 232 3.0 7.0 0.00 0.00 0.00 37 1007.5
20220816034907 84 246 4.0 7.0 0.00 0.00 0.00 36 1007.6
20220816034327 85 239 6.0 9.0 0.00 0.00 0.00 35 1007.5
20220816033837 85 234 6.0 9.0 0.00 0.00 0.00 34 1007.5
20220816033329 85 248 6.0 8.0 0.00 0.00 0.00 32 1007.4
20220816032831 86 230 6.0 8.0 0.00 0.00 0.00 31 1007.4
20220816032341 86 261 6.0 8.0 0.00 0.00 0.00 30 1007.4
20220816031852 86 232 5.0 8.0 0.00 0.00 0.00 28 1007.4
20220816031359 87 240 6.0 8.0 0.00 0.00 0.00 27 1007.3
20220816031316 87 240 6.0 8.0 0.00 0.00 0.00 27 1007.3
20220816030851 87 249 5.0 6.0 0.00 0.00 0.00 25 1007.4
20220816030410 88 228 1.0 2.0 0.00 0.00 0.00 23 1007.3
20220816025908 88 228 0.0 2.0 0.00 0.00 0.00 23 1007.4
20220816025353 89 228 1.0 3.0 0.00 0.00 0.00 23 1007.2
20220816024841 90 228 2.0 3.0 0.00 0.00 0.00 22 1007.2
20220816024346 91 219 2.0 4.0 0.00 0.00 0.00 21 1007.1
20220816023906 91 223 3.0 4.0 0.00 0.00 0.00 21 1007.1
20220816023323 92 209 3.0 4.0 0.00 0.00 0.00 20 1007.2
20220816022907 92 221 3.0 5.0 0.00 0.00 0.00 20 1007.1
20220816022825 92 221 3.0 5.0 0.00 0.00 0.00 20 1007.1
20220816022423 93 215 3.0 5.0 0.00 0.00 0.00 20 1007.1
20220816022341 93 215 3.0 5.0 0.00 0.00 0.00 20 1007.1
20220816021843 94 238 4.0 6.0 0.00 0.00 0.00 19 1007.0
20220816021410 94 228 4.0 7.0 0.00 0.00 0.00 19 1007.1
20220816021327 94 228 4.0 7.0 0.00 0.00 0.00 19 1007.1
20220816020834 95 231 4.0 7.0 0.00 0.00 0.00 19 1007.1
20220816020413 95 221 4.0 7.0 0.00 0.00 0.00 19 1007.1
20220816020330 95 221 4.0 7.0 0.00 0.00 0.00 19 1007.1
20220816015833 96 223 5.0 7.0 0.00 0.00 0.00 20 1007.1
20220816015403 96 215 5.0 7.0 0.00 0.00 0.00 20 1007.1
20220816014836 96 232 5.0 7.0 0.00 0.00 0.00 20 1007.1
20220816014316 97 223 5.0 7.0 0.00 0.00 0.00 20 1007.1
20220816013917 97 226 5.0 7.0 0.00 0.00 0.00 20 1007.1
20220816013835 97 226 5.0 7.0 0.00 0.00 0.00 20 1007.1
20220816013346 98 228 6.0 8.0 0.00 0.00 0.00 19 1007.2
20220816012838 98 221 5.0 8.0 0.00 0.00 0.00 19 1007.2
20220816012345 98 205 5.0 8.0 0.00 0.00 0.00 19 1007.3
20220816011907 99 221 5.0 8.0 0.00 0.00 0.00 19 1007.2
20220816011347 99 229 6.0 7.0 0.00 0.00 0.00 19 1007.3
20220816010915 99 230 5.0 9.0 0.00 0.00 0.00 18 1007.2
20220816010317 100 242 6.0 9.0 0.00 0.00 0.00 18 1007.3
20220816005847 100 231 5.0 7.0 0.00 0.00 0.00 16 1007.4
20220816005334 100 234 5.0 7.0 0.00 0.00 0.00 17 1007.5
20220816004859 100 267 5.0 7.0 0.00 0.00 0.00 15 1007.4
20220816004344 101 225 5.0 7.0 0.00 0.00 0.00 16 1007.4
20220816003839 101 225 4.0 9.0 0.00 0.00 0.00 15 1007.3
20220816003342 102 240 6.0 9.0 0.00 0.00 0.00 15 1007.3
20220816002902 101 257 6.0 8.0 0.00 0.00 0.00 16 1007.3
20220816002820 101 257 6.0 8.0 0.00 0.00 0.00 16 1007.3
20220816002355 101 219 5.0 8.0 0.00 0.00 0.00 12 1007.4
20220816001858 101 291 5.0 6.0 0.00 0.00 0.00 18 1007.5
20220816001339 101 269 4.0 7.0 0.00 0.00 0.00 16 1007.6
20220816000858 102 229 5.0 7.0 0.00 0.00 0.00 13 1007.6
20220816000403 101 175 3.0 7.0 0.00 0.00 0.00 13 1007.6
20220816000321 101 175 3.0 7.0 0.00 0.00 0.00 13 1007.6
20220815235821 102 223 6.0 8.0 0.00 0.00 0.00 14 1007.6
20220815235421 101 236 5.0 10.0 0.00 0.00 0.00 18 1007.6
20220815235339 101 236 5.0 10.0 0.00 0.00 0.00 18 1007.6
20220815234841 102 281 6.0 10.0 0.00 0.00 0.00 14 1007.6
20220815234320 102 245 3.0 6.0 0.00 0.00 0.00 14 1007.6
20220815233914 101 223 3.0 8.0 0.00 0.00 0.00 17 1007.6
20220815233317 101 279 4.0 7.0 0.00 0.00 0.00 16 1007.8
20220815232840 101 296 3.0 7.0 0.00 0.00 0.00 16 1007.8
20220815232337 101 252 5.0 7.0 0.00 0.00 0.00 17 1007.8
20220815231905 102 294 5.0 8.0 0.00 0.00 0.00 17 1007.9
20220815231412 102 250 5.0 8.0 0.00 0.00 0.00 15 1007.9
20220815231330 102 250 5.0 8.0 0.00 0.00 0.00 15 1007.9
20220815230929 101 236 4.0 7.0 0.00 0.00 0.00 16 1007.9
20220815230337 101 253 2.0 9.0 0.00 0.00 0.00 18 1008.0
20220815225821 102 315 3.0 9.0 0.00 0.00 0.00 16 1008.0
20220815225406 102 238 6.0 8.0 0.00 0.00 0.00 16 1008.2
20220815224858 101 231 5.0 10.0 0.00 0.00 0.00 16 1008.2
20220815224411 101 217 7.0 10.0 0.00 0.00 0.00 17 1008.2
20220815224329 101 217 7.0 10.0 0.00 0.00 0.00 17 1008.2
20220815223918 100 254 2.0 7.0 0.00 0.00 0.00 18 1008.3
20220815223835 100 254 2.0 7.0 0.00 0.00 0.00 18 1008.3
20220815223421 101 252 1.0 9.0 0.00 0.00 0.00 15 1008.4
20220815222824 101 206 5.0 9.0 0.00 0.00 0.00 17 1008.4
20220815222323 102 253 5.0 8.0 0.00 0.00 0.00 15 1008.4
20220815221919 101 219 5.0 8.0 0.00 0.00 0.00 18 1008.5
20220815221836 101 219 5.0 8.0 0.00 0.00 0.00 18 1008.5
20220815221405 101 275 4.0 8.0 0.00 0.00 0.00 18 1008.6
20220815221322 101 275 4.0 8.0 0.00 0.00 0.00 18 1008.6
20220815220853 100 216 5.0 8.0 0.00 0.00 0.00 18 1008.7
20220815220337 100 5 4.0 7.0 0.00 0.00 0.00 17 1008.8
20220815215830 101 277 4.0 7.0 0.00 0.00 0.00 15 1008.8
20220815215322 100 289 4.0 6.0 0.00 0.00 0.00 16 1008.8
20220815214906 99 238 2.0 7.0 0.00 0.00 0.00 15 1008.9
20220815214824 99 238 2.0 7.0 0.00 0.00 0.00 15 1008.9
20220815214343 99 270 4.0 7.0 0.00 0.00 0.00 17 1009.1
20220815213908 99 297 3.0 6.0 0.00 0.00 0.00 18 1009.1
20220815213316 100 300 3.0 7.0 0.00 0.00 0.00 19 1009.1
20220815212839 99 261 4.0 7.0 0.00 0.00 0.00 18 1009.2
20220815212356 100 224 2.0 7.0 0.00 0.00 0.00 19 1009.1
20220815211902 99 237 4.0 7.0 0.00 0.00 0.00 17 1009.1
20220815211340 99 278 4.0 7.0 0.00 0.00 0.00 16 1009.2
20220815210831 99 305 3.0 7.0 0.00 0.00 0.00 17 1009.4
20220815210317 98 283 1.0 5.0 0.00 0.00 0.00 20 1009.5
20220815205823 98 18 2.0 6.0 0.00 0.00 0.00 18 1009.4
20220815205342 98 360 3.0 6.0 0.00 0.00 0.00 21 1009.6
20220815204906 98 312 2.0 7.0 0.00 0.00 0.00 20 1009.5
20220815204824 98 312 2.0 7.0 0.00 0.00 0.00 20 1009.5
20220815204405 98 267 4.0 7.0 0.00 0.00 0.00 20 1009.6
20220815204323 98 267 4.0 7.0 0.00 0.00 0.00 20 1009.6
20220815203836 97 288 5.0 7.0 0.00 0.00 0.00 19 1009.7
20220815203338 97 286 5.0 8.0 0.00 0.00 0.00 20 1009.7
20220815202910 98 220 5.0 8.0 0.00 0.00 0.00 21 1009.8
20220815202827 98 220 5.0 8.0 0.00 0.00 0.00 21 1009.8
20220815202429 98 267 3.0 6.0 0.00 0.00 0.00 22 1009.8
20220815201843 97 290 3.0 7.0 0.00 0.00 0.00 21 1009.9
20220815201345 96 257 4.0 8.0 0.00 0.00 0.00 24 1009.9
20220815200859 96 248 5.0 10.0 0.00 0.00 0.00 23 1009.9
20220815200402 95 274 5.0 10.0 0.00 0.00 0.00 26 1010.0
20220815200319 95 274 5.0 10.0 0.00 0.00 0.00 26 1010.0
20220815195905 95 276 4.0 8.0 0.00 0.00 0.00 25 1010.0
20220815195412 95 258 3.0 9.0 0.00 0.00 0.00 25 1010.0
20220815194846 94 275 5.0 9.0 0.00 0.00 0.00 26 1010.0
20220815194321 94 211 5.0 8.0 0.00 0.00 0.00 27 1010.2
20220815193901 94 240 6.0 8.0 0.00 0.00 0.00 28 1010.4
20220815193410 93 32 3.0 10.0 0.00 0.00 0.00 28 1010.4
20220815193328 93 32 3.0 10.0 0.00 0.00 0.00 28 1010.4
20220815192827 92 213 3.0 10.0 0.00 0.00 0.00 31 1010.4
20220815192422 93 236 5.0 8.0 0.00 0.00 0.00 30 1010.4
20220815191909 91 229 4.0 8.0 0.00 0.00 0.00 31 1010.5
20220815191827 91 229 4.0 8.0 0.00 0.00 0.00 31 1010.5
20220815191401 90 205 3.0 7.0 0.00 0.00 0.00 32 1010.6
20220815191319 90 205 3.0 7.0 0.00 0.00 0.00 32 1010.6
20220815190818 91 310 3.0 8.0 0.00 0.00 0.00 31 1010.6
20220815190415 91 254 3.0 8.0 0.00 0.00 0.00 32 1010.7
20220815190333 91 254 3.0 8.0 0.00 0.00 0.00 32 1010.7
20220815185820 91 200 4.0 7.0 0.00 0.00 0.00 32 1010.8
20220815185347 90 308 4.0 7.0 0.00 0.00 0.00 34 1010.9
20220815184902 89 267 4.0 6.0 0.00 0.00 0.00 35 1011.0
20220815184332 88 262 2.0 6.0 0.00 0.00 0.00 35 1011.0
20220815183853 88 263 4.0 6.0 0.00 0.00 0.00 35 1011.1
20220815183405 86 332 3.0 6.0 0.00 0.00 0.00 35 1011.0
20220815182850 87 248 4.0 6.0 0.00 0.00 0.00 31 1011.0
20220815182335 86 335 2.0 7.0 0.00 0.00 0.00 30 1011.0
20220815181826 85 291 3.0 7.0 0.00 0.00 0.00 37 1011.0
20220815181423 85 232 3.0 5.0 0.00 0.00 0.00 43 1011.0
20220815181340 85 232 3.0 5.0 0.00 0.00 0.00 43 1011.0
20220815180821 84 313 2.0 5.0 0.00 0.00 0.00 40 1011.0
20220815180343 83 316 2.0 5.0 0.00 0.00 0.00 41 1011.2
20220815175842 83 277 3.0 5.0 0.00 0.00 0.00 43 1011.3
20220815175414 83 254 2.0 5.0 0.00 0.00 0.00 43 1011.3
20220815175332 83 254 2.0 5.0 0.00 0.00 0.00 43 1011.3
20220815174837 82 244 3.0 5.0 0.00 0.00 0.00 45 1011.4
20220815174342 81 232 3.0 6.0 0.00 0.00 0.00 48 1011.3
20220815173841 82 262 3.0 8.0 0.00 0.00 0.00 48 1011.2
20220815173349 81 254 4.0 8.0 0.00 0.00 0.00 49 1011.4
20220815172836 80 299 2.0 4.0 0.00 0.00 0.00 49 1011.3
20220815172412 81 318 2.0 4.0 0.00 0.00 0.00 48 1011.1
20220815172330 81 318 2.0 4.0 0.00 0.00 0.00 48 1011.1
20220815171857 80 294 3.0 4.0 0.00 0.00 0.00 49 1011.2
20220815171815 80 294 3.0 4.0 0.00 0.00 0.00 49 1011.2
20220815171341 79 210 2.0 5.0 0.00 0.00 0.00 48 1011.3
20220815170923 79 169 3.0 6.0 0.00 0.00 0.00 50 1011.4
20220815170840 79 169 3.0 6.0 0.00 0.00 0.00 50 1011.4
20220815170326 79 239 3.0 4.0 0.00 0.00 0.00 54 1011.5
20220815165906 78 306 2.0 5.0 0.00 0.00 0.00 52 1011.4
20220815165322 78 273 2.0 5.0 0.00 0.00 0.00 54 1011.3
20220815164920 78 275 3.0 5.0 0.00 0.00 0.00 54 1011.2
20220815164837 78 275 3.0 5.0 0.00 0.00 0.00 54 1011.2
20220815164317 77 265 2.0 6.0 0.00 0.00 0.00 54 1011.2
20220815163822 77 271 4.0 6.0 0.00 0.00 0.00 53 1011.2
20220815163353 77 311 2.0 4.0 0.00 0.00 0.00 56 1011.2
20220815162901 76 247 2.0 5.0 0.00 0.00 0.00 58 1011.1
20220815162818 76 247 2.0 5.0 0.00 0.00 0.00 58 1011.1
20220815162330 75 266 3.0 5.0 0.00 0.00 0.00 56 1011.2
20220815161816 75 225 2.0 5.0 0.00 0.00 0.00 57 1011.1
20220815161355 74 227 3.0 5.0 0.00 0.00 0.00 58 1011.0
20220815160906 73 229 3.0 6.0 0.00 0.00 0.00 60 1011.1
20220815160343 72 192 4.0 6.0 0.00 0.00 0.00 62 1011.2
20220815155834 71 189 2.0 5.0 0.00 0.00 0.00 64 1011.1
20220815155340 69 239 3.0 5.0 0.00 0.00 0.00 67 1011.0
20220815154851 69 269 3.0 5.0 0.00 0.00 0.00 67 1011.0
20220815154339 67 212 3.0 6.0 0.00 0.00 0.00 69 1011.0
20220815153820 66 259 3.0 6.0 0.00 0.00 0.00 73 1011.0
20220815153321 65 240 3.0 5.0 0.00 0.00 0.00 74 1011.0
20220815152839 64 269 2.0 4.0 0.00 0.00 0.00 75 1011.0
20220815152405 62 207 2.0 4.0 0.00 0.00 0.00 76 1011.0
20220815151824 61 234 2.0 4.0 0.00 0.00 0.00 77 1011.0
20220815151337 60 260 2.0 3.0 0.00 0.00 0.00 77 1010.9
20220815150849 60 200 2.0 3.0 0.00 0.00 0.00 77 1011.0
20220815150400 59 95 2.0 2.0 0.00 0.00 0.00 77 1010.9
20220815150317 59 95 2.0 2.0 0.00 0.00 0.00 77 1010.9
20220815145844 59 66 1.0 2.0 0.00 0.00 0.00 78 1010.8
20220815145416 59 66 1.0 2.0 0.00 0.00 0.00 78 1010.9
20220815144855 58 66 1.0 2.0 0.00 0.00 0.00 79 1010.9
20220815144340 58 66 1.0 2.0 0.00 0.00 0.00 79 1010.9
20220815143917 58 66 1.0 2.0 0.00 0.00 0.00 78 1010.8
20220815143320 57 66 2.0 3.0 0.00 0.00 0.00 76 1010.9
20220815142819 57 73 1.0 3.0 0.00 0.00 0.00 77 1010.8
20220815142352 56 68 1.0 2.0 0.00 0.00 0.00 80 1010.8
20220815141840 55 57 1.0 2.0 0.00 0.00 0.00 79 1010.6
20220815141328 55 57 1.0 2.0 0.00 0.00 0.00 81 1010.7
20220815140905 55 57 0.0 0.0 0.00 0.00 0.00 81 1010.6
20220815140320 55 57 0.0 0.0 0.00 0.00 0.00 80 1010.6
20220815135905 55 57 0.0 0.0 0.00 0.00 0.00 80 1010.5
20220815135822 55 57 0.0 0.0 0.00 0.00 0.00 80 1010.5
20220815135353 55 57 0.0 0.0 0.00 0.00 0.00 80 1010.5
20220815134824 55 57 0.0 1.0 0.00 0.00 0.00 80 1010.5
20220815134350 55 57 0.0 1.0 0.00 0.00 0.00 79 1010.5
20220815133901 55 57 0.0 1.0 0.00 0.00 0.00 79 1010.5
20220815133818 55 57 0.0 1.0 0.00 0.00 0.00 79 1010.5
20220815133313 55 57 0.0 0.0 0.00 0.00 0.00 79 1010.5
20220815132838 55 57 0.0 0.0 0.00 0.00 0.00 79 1010.5
20220815132317 55 57 0.0 2.0 0.00 0.00 0.00 79 1010.6
20220815131911 55 57 1.0 2.0 0.00 0.00 0.00 79 1010.4
20220815131829 55 57 1.0 2.0 0.00 0.00 0.00 79 1010.4
20220815131327 55 57 2.0 4.0 0.00 0.00 0.00 79 1010.4
20220815130843 56 45 3.0 4.0 0.00 0.00 0.00 77 1010.3
20220815130410 56 76 2.0 4.0 0.00 0.00 0.00 76 1010.3
20220815125913 56 76 3.0 4.0 0.00 0.00 0.00 76 1010.3
20220815125426 56 76 2.0 4.0 0.00 0.00 0.00 76 1010.3
20220815125344 56 76 2.0 4.0 0.00 0.00 0.00 76 1010.3
20220815124848 56 69 2.0 2.0 0.00 0.00 0.00 76 1010.3
20220815124322 56 41 2.0 2.0 0.00 0.00 0.00 76 1010.3
20220815123855 56 41 1.0 2.0 0.00 0.00 0.00 76 1010.2
20220815123400 56 41 0.0 2.0 0.00 0.00 0.00 76 1010.2
20220815123317 56 41 0.0 2.0 0.00 0.00 0.00 76 1010.2
20220815122901 56 41 0.0 2.0 0.00 0.00 0.00 77 1010.2
20220815122343 56 41 2.0 2.0 0.00 0.00 0.00 76 1010.3
20220815121916 57 41 2.0 2.0 0.00 0.00 0.00 78 1010.3
20220815121834 57 41 2.0 2.0 0.00 0.00 0.00 78 1010.3
20220815121329 57 355 1.0 1.0 0.00 0.00 0.00 79 1010.3
20220815120836 57 355 0.0 2.0 0.00 0.00 0.00 79 1010.2
20220815120330 58 355 0.0 2.0 0.00 0.00 0.00 78 1010.2
20220815115846 58 355 0.0 1.0 0.00 0.00 0.00 77 1010.2
20220815115355 58 355 0.0 1.0 0.00 0.00 0.00 77 1010.3
20220815114841 58 355 0.0 1.0 0.00 0.00 0.00 76 1010.3
20220815114403 58 355 0.0 2.0 0.00 0.00 0.00 76 1010.3
20220815113904 58 355 0.0 3.0 0.00 0.00 0.00 75 1010.3
20220815113821 58 355 0.0 3.0 0.00 0.00 0.00 75 1010.3
20220815113322 58 74 1.0 3.0 0.00 0.00 0.00 74 1010.3
20220815112901 58 74 2.0 3.0 0.00 0.00 0.00 74 1010.4
20220815112325 58 74 2.0 3.0 0.00 0.00 0.00 73 1010.3
20220815111822 58 74 3.0 3.0 0.00 0.00 0.00 74 1010.3
20220815111413 59 80 2.0 3.0 0.00 0.00 0.00 72 1010.4
20220815111330 59 80 2.0 3.0 0.00 0.00 0.00 72 1010.4
20220815110843 60 22 1.0 2.0 0.00 0.00 0.00 74 1010.3
20220815110354 60 22 1.0 1.0 0.00 0.00 0.00 74 1010.3
20220815105846 60 22 0.0 1.0 0.00 0.00 0.00 72 1010.3
20220815105412 60 22 0.0 2.0 0.00 0.00 0.00 72 1010.3
20220815104900 61 22 1.0 2.0 0.00 0.00 0.00 71 1010.3
20220815104400 61 78 0.0 1.0 0.00 0.00 0.00 71 1010.4
20220815103819 61 78 0.0 1.0 0.00 0.00 0.00 71 1010.4
20220815103319 61 78 0.0 1.0 0.00 0.00 0.00 70 1010.4
20220815102843 61 78 0.0 2.0 0.00 0.00 0.00 69 1010.4
20220815102320 61 78 1.0 2.0 0.00 0.00 0.00 64 1010.4
20220815101840 61 78 1.0 2.0 0.00 0.00 0.00 64 1010.4
20220815101354 61 79 1.0 2.0 0.00 0.00 0.00 65 1010.5
20220815100816 61 71 0.0 1.0 0.00 0.00 0.00 64 1010.4
20220815100338 61 71 1.0 1.0 0.00 0.00 0.00 64 1010.3
20220815095836 61 71 0.0 2.0 0.00 0.00 0.00 64 1010.3
20220815095405 62 71 1.0 2.0 0.00 0.00 0.00 64 1010.3
20220815095322 62 71 1.0 2.0 0.00 0.00 0.00 64 1010.3
20220815094906 62 71 0.0 2.0 0.00 0.00 0.00 65 1010.4
20220815094336 62 71 1.0 3.0 0.00 0.00 0.00 72 1010.5
20220815093847 62 71 2.0 3.0 0.00 0.00 0.00 67 1010.4
20220815093416 62 77 2.0 3.0 0.00 0.00 0.00 66 1010.4
20220815092821 62 67 0.0 2.0 0.00 0.00 0.00 68 1010.4
20220815092336 62 67 0.0 2.0 0.00 0.00 0.00 71 1010.4
20220815091827 62 67 1.0 2.0 0.00 0.00 0.00 75 1010.4
20220815091412 62 67 2.0 3.0 0.00 0.00 0.00 75 1010.4
20220815090855 62 67 2.0 3.0 0.00 0.00 0.00 75 1010.5
20220815090354 63 67 1.0 4.0 0.00 0.00 0.00 72 1010.5
20220815085858 63 72 3.0 4.0 0.00 0.00 0.00 67 1010.5
20220815085815 63 72 3.0 4.0 0.00 0.00 0.00 67 1010.5
20220815085339 63 76 3.0 5.0 0.00 0.00 0.00 68 1010.5
20220815084830 62 77 4.0 5.0 0.00 0.00 0.00 69 1010.5
20220815084357 62 75 4.0 5.0 0.00 0.00 0.00 70 1010.5
20220815084315 62 75 4.0 5.0 0.00 0.00 0.00 70 1010.5
20220815083853 62 80 5.0 6.0 0.00 0.00 0.00 70 1010.6
20220815083329 63 83 4.0 5.0 0.00 0.00 0.00 72 1010.7
20220815082852 63 42 1.0 3.0 0.00 0.00 0.00 74 1010.7
20220815082402 63 42 1.0 3.0 0.00 0.00 0.00 73 1010.8
20220815081841 64 26 2.0 3.0 0.00 0.00 0.00 71 1010.7
20220815081318 64 23 2.0 2.0 0.00 0.00 0.00 71 1010.8
20220815080821 65 167 0.0 0.0 0.00 0.00 0.00 70 1010.8
20220815080337 66 167 0.0 2.0 0.00 0.00 0.00 67 1010.7